Latest Weather Observations for Wadeye (Port Keats)

IDD60801

Issued at 3:01 pm CST Sunday 29 March 2015 (issued every 30 minutes, with the page automatically refreshed every 10 minutes)

About weather observations | Map of weather stations | Latest weather observations for NT | Other Formats
Station Details ID: 014948 Name: PORT KEATS AIRPORT Lat: -14.25 Lon: 129.53 Height: 28.0 m
Data from the previous 72 hours. | See also: Recent months at Wadeye (Port Keats)
Date/Time
CST
Temp
°C
App
Temp
°C
Dew
Point
Rel
Hum
%
Delta-T
°C
Wind Press
QNH
hPa
Press
MSL
hPa
Rain
since 9 am
mm
Dir
 
Spd
km/h
Gust
km/h
Spd
kts
Gust
kts
29/03:00pm 30.6 33.3 22.2 61 5.7 SW 11 19 6 10 1010.7 1010.5 0.0
29/02:30pm 31.4 33.8 23.0 61 5.8 WSW 15 22 8 12 1010.9 1010.7 0.0
29/02:00pm 31.9 36.2 24.2 63 5.4 WSW 9 17 5 9 1011.0 1010.8 0.0
29/01:30pm 32.4 35.9 24.2 62 5.7 W 13 20 7 11 1011.4 1011.2 0.0
29/01:00pm 33.5 37.5 23.8 57 6.8 NNW 9 15 5 8 1011.8 1011.6 0.0
29/12:30pm 34.4 35.8 20.4 44 9.4 NE 13 17 7 9 1012.1 1011.9 0.0
29/12:00pm 34.4 36.4 20.0 42 9.6 E 9 15 5 8 1012.5 1012.3 0.0
29/11:30am 33.9 36.7 22.3 50 8.0 E 11 17 6 9 1012.9 1012.7 0.0
29/11:00am 33.1 36.1 21.9 51 7.6 ENE 9 15 5 8 1013.2 1013.0 0.0
29/10:30am 32.1 35.8 22.5 57 6.6 SE 7 13 4 7 1013.3 1013.1 0.0
29/10:00am 31.4 35.8 23.8 64 5.3 S 7 11 4 6 1013.4 1013.2 0.0
29/09:30am 30.5 35.2 23.9 68 4.6 S 6 9 3 5 1013.3 1013.1 0.0
29/09:00am 29.9 35.1 24.8 74 3.6 E 6 9 3 5 1013.1 1012.9 0.0
29/08:30am 28.4 33.2 24.2 78 2.9 ESE 6 9 3 5 1012.8 1012.6 0.0
29/08:00am 27.4 32.3 24.7 85 1.9 SE 7 9 4 5 1012.5 1012.3 0.0
29/07:30am 25.4 30.2 24.4 94 0.7 SSE 7 9 4 5 1012.1 1011.9 0.0
29/07:00am 24.5 28.9 23.8 96 0.5 S 7 9 4 5 1011.8 1011.6 0.0
29/06:30am 24.0 28.5 23.0 94 0.7 S 4 7 2 4 1011.5 1011.3 0.0
29/06:00am 24.1 28.3 23.1 94 0.7 S 6 7 3 4 1011.3 1011.1 0.0
29/05:30am 24.5 30.1 23.5 94 0.7 CALM 0 2 0 1 1011.2 1011.0 0.0
29/05:00am 24.3 29.6 23.1 93 0.8 CALM 0 0 0 0 1011.0 1010.8 0.0
29/04:30am 24.6 30.0 23.2 92 1.0 CALM 0 4 0 2 1010.8 1010.6 0.0
29/04:00am 25.0 29.6 23.8 93 0.8 SSE 6 7 3 4 1010.7 1010.5 0.0
29/03:30am 24.7 29.2 23.7 94 0.7 SSE 6 7 3 4 1011.0 1010.8 0.0
29/03:00am 24.6 30.1 23.4 93 0.8 CALM 0 0 0 0 1011.2 1011.0 0.0
29/02:30am 24.9 30.3 23.3 91 1.1 CALM 0 0 0 0 1011.5 1011.3 0.0
29/02:00am 25.5 30.5 24.5 94 0.7 SE 6 7 3 4 1011.5 1011.3 0.0
29/01:30am 25.1 30.8 23.7 92 1.0 CALM 0 4 0 2 1011.8 1011.6 0.0
29/01:00am 25.3 30.1 24.1 93 0.8 S 6 7 3 4 1012.4 1012.2 0.0
29/12:30am 25.3 30.3 23.9 92 1.0 SSW 4 6 2 3 1012.7 1012.5 0.0
29/12:00am 25.4 31.2 24.0 92 1.0 CALM 0 0 0 0 1012.7 1012.5 0.0
 
Date/Time
CST
Temp
°C
App
Temp
°C
Dew
Point
Rel
Hum
%
Delta-T
°C
Wind Press
QNH
hPa
Press
MSL
hPa
Rain
since 9 am
mm
Dir
 
Spd
km/h
Gust
km/h
Spd
kts
Gust
kts
28/11:30pm 25.5 31.2 23.7 90 1.2 CALM 0 0 0 0 1012.7 1012.5 0.0
28/11:00pm 25.6 31.2 23.6 89 1.4 CALM 0 0 0 0 1012.9 1012.7 0.0
28/10:30pm 26.1 31.9 24.0 88 1.4 CALM 0 0 0 0 1012.9 1012.7 0.0
28/10:00pm 26.1 31.8 23.8 87 1.6 CALM 0 0 0 0 1012.8 1012.6 0.0
28/09:30pm 26.7 32.4 23.8 84 2.0 CALM 0 0 0 0 1012.7 1012.5 0.0
28/09:00pm 27.1 32.5 23.3 80 2.6 CALM 0 0 0 0 1012.7 1012.5 0.0
28/08:30pm 27.3 32.7 23.3 79 2.7 CALM 0 0 0 0 1012.4 1012.2 0.0
28/08:00pm 27.7 32.3 23.1 76 3.1 WSW 4 6 2 3 1012.2 1012.0 0.0
28/07:30pm 28.3 32.4 23.0 73 3.6 W 6 6 3 3 1011.9 1011.7 0.0
28/07:00pm 28.9 33.0 22.9 70 4.1 WNW 6 9 3 5 1011.5 1011.3 0.0
28/06:30pm 29.8 33.1 22.5 65 5.0 WNW 9 13 5 7 1011.2 1011.0 0.0
28/06:00pm 30.6 33.9 22.5 62 5.5 WNW 9 15 5 8 1010.9 1010.7 0.0
28/05:30pm 31.3 34.1 22.3 58 6.1 W 11 17 6 9 1010.5 1010.3 0.0
28/05:00pm 31.9 34.3 22.3 56 6.6 W 13 19 7 10 1010.1 1009.9 0.0
28/04:30pm 32.0 34.5 22.4 57 6.6 WNW 13 20 7 11 1010.1 1009.9 0.0
28/04:00pm 32.1 34.6 22.5 57 6.6 WNW 13 20 7 11 1010.3 1010.1 0.0
28/03:30pm 32.3 34.8 22.4 56 6.8 WNW 13 20 7 11 1010.3 1010.1 0.0
28/03:00pm 32.8 36.0 23.7 58 6.3 WNW 13 24 7 13 1010.6 1010.4 0.0
28/02:30pm 32.3 34.9 22.7 57 6.6 WNW 13 19 7 10 1010.8 1010.6 0.0
28/02:00pm 32.5 35.3 22.3 55 7.0 NW 11 19 6 10 1011.2 1011.0 0.0
28/01:30pm 34.2 36.5 20.6 45 9.1 ENE 9 17 5 9 1011.4 1011.2 0.0
28/01:00pm 33.6 35.5 21.4 48 8.3 NNE 13 19 7 10 1011.7 1011.5 0.0
28/12:30pm 33.0 34.3 20.2 47 8.5 ENE 13 22 7 12 1012.4 1012.2 0.0
28/12:00pm 33.3 35.5 21.1 48 8.2 ENE 11 22 6 12 1012.9 1012.7 0.0
28/11:30am 32.5 34.6 21.0 50 7.7 ESE 11 17 6 9 1013.4 1013.2 0.0
28/11:00am 31.1 33.0 21.3 56 6.6 SSE 13 19 7 10 1013.8 1013.6 0.0
28/10:30am 30.3 33.8 22.2 62 5.5 S 7 15 4 8 1013.9 1013.7 0.0
28/10:00am 29.9 33.4 22.1 63 5.3 SSE 7 11 4 6 1014.0 1013.8 0.0
28/09:30am 29.8 33.0 21.7 61 5.5 SE 7 9 4 5 1013.7 1013.5 0.0
28/09:00am 28.5 32.2 22.5 70 4.1 SE 7 13 4 7 1013.6 1013.4 0.0
28/08:30am 27.2 30.8 22.4 75 3.2 SE 7 9 4 5 1013.0 1012.8 0.0
28/08:00am 24.8 28.9 22.9 89 1.3 SSE 6 7 3 4 1012.8 1012.6 0.0
28/07:30am 23.9 27.8 22.5 92 0.9 SE 6 7 3 4 1012.3 1012.1 0.0
28/07:00am 23.5 27.3 22.7 95 0.5 SE 7 9 4 5 1012.0 1011.8 0.0
28/06:30am 22.9 27.6 21.9 94 0.7 CALM 0 0 0 0 1011.8 1011.6 0.0
28/06:00am 23.3 27.2 22.5 95 0.5 SE 6 7 3 4 1011.5 1011.3 0.0
28/05:30am 23.5 27.8 22.7 95 0.5 SE 4 7 2 4 1011.4 1011.2 0.0
28/05:00am 23.3 28.1 22.1 93 0.8 CALM 0 0 0 0 1011.4 1011.2 0.0
28/04:30am 23.8 28.6 22.2 91 1.1 CALM 0 0 0 0 1011.3 1011.1 0.0
28/04:00am 23.9 28.5 21.8 88 1.4 CALM 0 0 0 0 1011.4 1011.2 0.0
28/03:30am 24.4 28.4 22.1 87 1.5 ESE 4 6 2 3 1011.4 1011.2 0.0
28/03:00am 24.4 28.5 22.3 88 1.4 ENE 4 6 2 3 1011.6 1011.4 0.0
28/02:30am 24.0 28.8 22.1 89 1.3 CALM 0 0 0 0 1012.0 1011.8 0.0
28/02:00am 24.6 28.2 22.1 86 1.7 ESE 6 7 3 4 1012.3 1012.1 0.0
28/01:30am 25.0 29.8 22.1 84 1.9 CALM 0 0 0 0 1012.6 1012.4 0.0
28/01:00am 25.1 28.9 22.4 85 1.8 ENE 6 7 3 4 1012.9 1012.7 0.0
28/12:30am 24.8 29.8 22.5 87 1.5 CALM 0 0 0 0 1013.1 1012.9 0.0
28/12:00am 25.5 29.5 22.0 81 2.3 E 4 6 2 3 1013.3 1013.1 0.0
 
Date/Time
CST
Temp
°C
App
Temp
°C
Dew
Point
Rel
Hum
%
Delta-T
°C
Wind Press
QNH
hPa
Press
MSL
hPa
Rain
since 9 am
mm
Dir
 
Spd
km/h
Gust
km/h
Spd
kts
Gust
kts
27/11:30pm 25.8 29.4 22.1 80 2.5 ESE 6 7 3 4 1013.6 1013.4 0.0
27/11:00pm 26.0 29.1 22.1 79 2.6 E 9 13 5 7 1013.9 1013.7 0.0
27/10:30pm 26.2 29.5 22.5 80 2.5 E 9 15 5 8 1014.1 1013.9 0.0
27/10:00pm 26.3 29.2 23.2 83 2.1 ESE 13 19 7 10 1014.0 1013.8 0.0
27/09:30pm 26.6 29.8 23.7 84 2.0 ESE 13 19 7 10 1013.9 1013.7 0.0
27/09:00pm 26.3 30.8 24.0 87 1.6 SE 7 9 4 5 1013.9 1013.7 0.0
27/08:30pm 26.0 31.8 24.0 89 1.4 CALM 0 0 0 0 1013.6 1013.4 0.0
27/08:00pm 26.3 31.8 24.0 87 1.6 SSE 2 6 1 3 1013.2 1013.0 0.0
27/07:30pm 26.9 31.4 23.6 82 2.3 ESE 6 7 3 4 1012.9 1012.7 0.0
27/07:00pm 27.0 31.5 23.7 82 2.3 ESE 6 6 3 3 1012.4 1012.2 0.0
27/06:30pm 27.2 31.8 23.2 79 2.7 ESE 4 7 2 4 1012.1 1011.9 0.0
27/06:00pm 27.5 31.7 23.1 77 3.0 E 6 7 3 4 1011.9 1011.7 0.0
27/05:30pm 27.8 31.5 23.2 76 3.1 ENE 9 13 5 7 1011.9 1011.7 0.0
27/05:00pm 27.9 31.9 22.8 74 3.5 NE 6 9 3 5 1011.5 1011.3 0.0
27/04:30pm 28.0 32.0 22.7 73 3.6 ENE 6 9 3 5 1011.2 1011.0 0.0
27/04:00pm 28.0 31.1 22.2 70 3.9 NE 9 13 5 7 1011.0 1010.8 0.0
27/03:30pm 28.1 31.1 22.6 72 3.7 NE 11 15 6 8 1011.1 1010.9 0.0
27/03:00pm 27.9 29.6 22.4 72 3.7 NNE 17 24 9 13 1011.7 1011.5 0.0
27/02:30pm 28.4 31.3 23.1 73 3.6 NNE 13 20 7 11 1012.3 1012.1 0.0
27/02:00pm 27.9 29.1 22.1 70 3.9 NNE 19 30 10 16 1012.8 1012.6 0.0
27/01:30pm 27.6 29.4 23.2 77 3.0 NNE 19 24 10 13 1012.9 1012.7 0.0
27/01:00pm 27.2 29.9 23.4 80 2.6 NNE 15 20 8 11 1013.0 1012.8 0.0
27/12:30pm 26.9 28.9 22.9 79 2.7 NNE 17 22 9 12 1013.1 1012.9 0.0
27/12:00pm 27.0 30.3 23.9 83 2.1 ENE 13 19 7 10 1013.2 1013.0 0.0
27/11:30am 26.5 29.3 23.6 84 2.0 ENE 15 20 8 11 1013.6 1013.4 0.0
27/11:00am 25.9 28.7 23.6 87 1.6 ENE 15 20 8 11 1014.0 1013.8 0.0
27/10:30am 25.4 28.0 24.0 92 1.0 ENE 17 24 9 13 1014.2 1014.0 0.0
27/10:00am 24.8 27.6 23.6 93 0.8 E 15 22 8 12 1014.6 1014.4 0.0
27/09:30am 24.6 27.7 23.6 94 0.7 E 13 19 7 10 1014.8 1014.6 0.0
27/09:00am 24.5 28.0 23.6 95 0.6 E 11 15 6 8 1014.9 1014.7 1.0
27/08:30am 24.4 28.2 23.5 95 0.6 E 9 13 5 7 1014.7 1014.5 1.0
27/08:00am 24.3 28.1 23.4 95 0.6 E 9 13 5 7 1014.7 1014.5 1.0
27/07:30am 24.2 27.9 23.3 95 0.6 E 9 11 5 6 1014.5 1014.3 1.0
27/07:00am 24.2 27.9 23.3 95 0.6 ENE 9 13 5 7 1014.2 1014.0 1.0
27/06:30am 24.2 27.9 23.2 94 0.7 ENE 9 13 5 7 1013.9 1013.7 1.0
27/06:00am 24.2 27.0 23.0 93 0.8 E 13 17 7 9 1013.4 1013.2 1.0
27/05:30am 24.2 27.5 23.2 94 0.7 E 11 15 6 8 1013.2 1013.0 1.0
27/05:00am 24.3 27.2 23.1 93 0.8 E 13 17 7 9 1012.8 1012.6 1.0
27/04:30am 24.3 26.7 22.9 92 0.9 E 15 20 8 11 1012.9 1012.7 1.0
27/04:00am 24.6 26.9 22.8 90 1.2 E 15 24 8 13 1012.6 1012.4 1.0
27/03:30am 24.8 27.5 22.9 89 1.3 E 13 22 7 12 1012.4 1012.2 1.0
27/03:00am 24.6 28.0 22.7 89 1.3 E 9 15 5 8 1012.3 1012.1 1.0
27/02:30am 25.2 27.3 22.5 85 1.8 E 15 20 8 11 1012.6 1012.4 1.0
27/02:00am 25.4 27.8 22.3 83 2.1 E 13 20 7 11 1012.6 1012.4 1.0
27/01:30am 25.8 27.5 22.3 81 2.4 E 17 26 9 14 1012.6 1012.4 1.0
27/01:00am 26.0 27.7 22.3 80 2.5 ESE 17 24 9 13 1012.9 1012.7 1.0
27/12:30am 26.1 28.3 22.6 81 2.4 ESE 15 22 8 12 1012.7 1012.5 1.0
27/12:00am 26.1 28.8 22.8 82 2.2 E 13 17 7 9 1013.0 1012.8 1.0
 
Date/Time
CST
Temp
°C
App
Temp
°C
Dew
Point
Rel
Hum
%
Delta-T
°C
Wind Press
QNH
hPa
Press
MSL
hPa
Rain
since 9 am
mm
Dir
 
Spd
km/h
Gust
km/h
Spd
kts
Gust
kts
26/11:30pm 26.0 28.7 22.9 83 2.1 ESE 13 20 7 11 1013.0 1012.8 1.0
26/11:00pm 25.8 28.4 22.7 83 2.1 E 13 19 7 10 1013.1 1012.9 1.0
26/10:30pm 25.6 28.6 22.7 84 2.0 E 11 19 6 10 1012.8 1012.6 1.0
26/10:00pm 25.5 28.2 22.8 85 1.8 ESE 13 20 7 11 1012.4 1012.2 1.0
26/09:30pm 25.7 29.0 22.6 83 2.1 ESE 9 11 5 6 1012.9 1012.7 1.0
26/09:00pm 25.9 28.9 22.6 82 2.2 E 11 15 6 8 1012.7 1012.5 1.0
26/08:30pm 25.9 28.9 22.6 82 2.2 E 11 19 6 10 1012.3 1012.1 1.0
26/08:00pm 26.0 28.9 23.1 84 2.0 SE 13 17 7 9 1012.0 1011.8 1.0
26/07:30pm 25.9 29.6 23.2 85 1.8 ESE 9 15 5 8 1011.8 1011.6 1.0
26/07:00pm 25.9 28.9 22.6 82 2.2 ESE 11 17 6 9 1011.2 1011.0 1.0
26/06:30pm 26.2 28.9 22.9 82 2.2 E 13 22 7 12 1011.0 1010.8 1.0
26/06:00pm 26.8 28.7 22.8 79 2.7 E 17 28 9 15 1010.5 1010.3 1.0
26/05:30pm 26.7 30.1 24.0 85 1.9 ENE 13 19 7 10 1009.6 1009.4 1.0
26/05:00pm 26.8 30.8 23.7 83 2.1 ENE 9 19 5 10 1009.5 1009.3 1.0
26/04:30pm 26.9 30.7 24.7 88 1.5 E 13 20 7 11 1009.2 1009.0 1.0
26/04:00pm 25.9 29.5 24.3 91 1.1 NE 13 19 7 10 1009.6 1009.4 1.0
26/03:30pm 27.0 31.2 25.4 91 1.1 NNW 13 20 7 11 1009.8 1009.6 0.0

Other Formats:

Comma delimited format used in spreadsheet applications
http://www.bom.gov.au/fwo/IDD60801/IDD60801.95111.axf

JavaScript Object Notation format (JSON) in row-major order
http://www.bom.gov.au/fwo/IDD60801/IDD60801.95111.json